Aérodrome :
LOGIN :

S'inscrire | Disclaimer

   EN    FR    IT 

 










Légende :    VFR   VFR Marginal   IFR   IFR Intensif   IFR Très Intensif
Visi : 
Plafond : 
>= 8 km
>= 3000ft
5 à 8 km
1000 à 3000 ft
1500m à 5 km
500 à 1000 ft
800 à 1500m
200 à 500 ft
< 800m
< 200 ft
Symboles :   Orages  Brouillard  Fortes neiges  Fortes précipitations  Vent > 20 kt
SIGMETs :   Divers  Orages  Givrage  Turbulence  Onde Orograph.  Cendres Volcan.







- Altitude de l'aérodrome : 1367 ft
- Code IATA : FDH


EDNY - Friedrichshafen

DERNIER METAR :
  • 200850Z 03003KT 300V070 8000 BKN063 M06/M08 Q1013

METARs EXPIRÉS :
  • 200820Z 04005KT 7000 FEW065 M07/M09 Q1013
  • 200750Z 04004KT 7000 SCT009 M07/M09 Q1013
  • 200720Z 04004KT 7000 BKN010 M07/M09 Q1013
  • 200650Z 02004KT 8000 SCT005 BKN062 M07/M09 Q1013
  • 200620Z 04006KT 7000 BKN005 OVC060 M07/M09 Q1013

TAF TAF EDNY
Valide du 20 à 06h jusqu'au 21 à 06h UTC


200500Z 2006/2106 VRB03KT 7000 SCT020
PROB30
TEMPO 2006/2009 2000 BCFG BKN004
TEMPO 2007/2012 4000 -SN BKN012
TEMPO 2019/2106 4000 -SN BKN006
Pas de NOTAMs connus pour ce terrain.



MET'MAP, la Météo Aéronautique d'un coup d'oeil ! - Copyright ORBIFLY Décembre 2007 - Disclaimer

ORBIFLY MET'MAP TEAM :

Programmation & Développement : Alexandra Zaïnal
Conception & Développement : Baudouin d'Aumeries
Co-Programmation & Développement : Marc-Olivier Méhu
Soutien technique & logistique : Manuel Goepfert

Contact : metmap@orbifly.com




SOURCES & CREDITS :

   NOAA